Time;durP1;ratioP1;P1;durP2;ratioP2;P2;SDS_P1;SDS_P2;PMS_P1;PMS_P2;Temp;Humidity;BMP_temperature;BMP_pressure;BME280_temperature;BME280_humidity;BME280_pressure;Samples;Min_cycle;Max_cycle;Signal;HPM_P1;HPM_P2
2022/07/18 00:01:14;;;;;;;;;;;16.10;99.90;;;;;;4601976;19;20369;-31
2022/07/18 00:02:45;;;;;;;;;;;16.10;99.90;;;;;;4601747;19;19911;-32
2022/07/18 00:04:16;;;;;;;;;;;16.10;99.90;;;;;;4602163;19;20230;-32
2022/07/18 00:05:47;;;;;;;;;;;16.00;99.90;;;;;;4601994;19;19914;-32
2022/07/18 00:07:18;;;;;;;;;;;16.00;99.90;;;;;;4601947;19;19935;-32
2022/07/18 00:08:49;;;;;;;;;;;16.00;99.90;;;;;;4600581;19;19919;-32
2022/07/18 00:10:20;;;;;;;;;;;16.00;99.90;;;;;;4601673;19;19925;-32
2022/07/18 00:11:51;;;;;;;;;;;16.00;99.90;;;;;;4602015;19;19970;-32
2022/07/18 00:13:22;;;;;;;;;;;16.00;99.90;;;;;;4601522;19;19927;-32
2022/07/18 00:14:53;;;;;;;;;;;16.00;99.90;;;;;;4601707;19;19921;-31
2022/07/18 00:16:24;;;;;;;;;;;16.10;99.90;;;;;;4600230;19;19931;-31
2022/07/18 00:17:55;;;;;;;;;;;16.00;99.90;;;;;;4601969;19;20245;-32
2022/07/18 00:19:26;;;;;;;;;;;16.00;99.90;;;;;;4601429;19;19919;-32
2022/07/18 00:20:57;;;;;;;;;;;16.00;99.90;;;;;;4600746;19;19919;-32
2022/07/18 00:22:28;;;;;;;;;;;16.00;99.90;;;;;;4601194;19;20328;-31
2022/07/18 00:23:59;;;;;;;;;;;16.00;99.90;;;;;;4601873;19;19919;-32
2022/07/18 00:25:30;;;;;;;;;;;16.00;99.90;;;;;;4601427;19;20259;-32
2022/07/18 00:27:02;;;;;;;;;;;16.00;99.90;;;;;;4601238;19;19919;-32
2022/07/18 00:28:33;;;;;;;;;;;16.00;99.90;;;;;;4602413;19;19911;-32
2022/07/18 00:30:04;;;;;;;;;;;16.00;99.90;;;;;;4601363;19;19926;-32
2022/07/18 00:31:36;;;;;;;;;;;16.00;99.90;;;;;;4601388;19;19926;-32
2022/07/18 00:33:07;;;;;;;;;;;16.00;99.90;;;;;;4600442;19;20001;-32
2022/07/18 00:34:38;;;;;;;;;;;16.00;99.90;;;;;;4601954;19;19927;-32
2022/07/18 00:36:09;;;;;;;;;;;16.00;99.90;;;;;;4601364;19;19981;-32
2022/07/18 00:37:40;;;;;;;;;;;16.00;99.90;;;;;;4600470;19;19922;-32
2022/07/18 00:39:11;;;;;;;;;;;16.00;99.90;;;;;;4601802;19;19922;-32
2022/07/18 00:40:42;;;;;;;;;;;16.00;99.90;;;;;;4600442;19;19941;-32
2022/07/18 00:42:13;;;;;;;;;;;16.00;99.90;;;;;;4600990;19;20268;-31
2022/07/18 00:43:44;;;;;;;;;;;16.00;99.90;;;;;;4601620;19;20333;-32
2022/07/18 00:45:15;;;;;;;;;;;16.00;99.90;;;;;;4601904;19;19924;-32
2022/07/18 00:46:48;;;;;;;;;;;16.00;99.90;;;;;;4599719;19;19914;-32
2022/07/18 00:48:19;;;;;;;;;;;16.00;99.90;;;;;;4600781;19;20248;-32
2022/07/18 00:49:50;;;;;;;;;;;16.00;99.90;;;;;;4601814;19;19982;-32
2022/07/18 00:51:21;;;;;;;;;;;16.00;99.90;;;;;;4601314;19;19915;-31
2022/07/18 00:52:52;;;;;;;;;;;15.90;99.90;;;;;;4601077;19;19922;-31
2022/07/18 00:54:23;;;;;;;;;;;15.90;99.90;;;;;;4601494;19;19911;-32
2022/07/18 00:55:55;;;;;;;;;;;15.90;99.90;;;;;;4598916;19;19934;-31
2022/07/18 00:57:26;;;;;;;;;;;15.90;99.90;;;;;;4599817;19;20387;-32
2022/07/18 00:58:57;;;;;;;;;;;15.90;99.90;;;;;;4600708;19;19918;-32
2022/07/18 01:02:17;;;;;;;;;;;15.90;99.90;;;;;;4600454;19;19929;-32
2022/07/18 01:03:48;;;;;;;;;;;15.90;99.90;;;;;;4601157;19;20424;-32
2022/07/18 01:05:19;;;;;;;;;;;15.90;99.90;;;;;;4600961;19;20000;-31
2022/07/18 01:06:51;;;;;;;;;;;15.90;99.90;;;;;;4600752;19;19915;-32
2022/07/18 01:08:22;;;;;;;;;;;15.90;99.90;;;;;;4601380;19;19974;-32
2022/07/18 01:09:53;;;;;;;;;;;15.90;99.90;;;;;;4601389;19;20228;-32
2022/07/18 01:11:24;;;;;;;;;;;15.90;99.90;;;;;;4599761;19;20258;-32
2022/07/18 01:12:55;;;;;;;;;;;15.80;99.90;;;;;;4599622;19;19915;-32
2022/07/18 01:14:26;;;;;;;;;;;15.80;99.90;;;;;;4600443;19;20332;-32
2022/07/18 01:15:57;;;;;;;;;;;15.90;99.90;;;;;;4600701;19;19920;-31
2022/07/18 01:17:28;;;;;;;;;;;15.80;99.90;;;;;;4599862;19;19918;-32
2022/07/18 01:18:59;;;;;;;;;;;15.80;99.90;;;;;;4600787;19;19922;-32
2022/07/18 01:20:30;;;;;;;;;;;15.80;99.90;;;;;;4601290;19;20247;-31
2022/07/18 01:22:01;;;;;;;;;;;15.80;99.90;;;;;;4600546;19;19915;-32
2022/07/18 01:23:32;;;;;;;;;;;15.80;99.90;;;;;;4600658;19;19914;-32
2022/07/18 01:25:03;;;;;;;;;;;15.80;99.90;;;;;;4600692;19;19925;-32
2022/07/18 01:26:36;;;;;;;;;;;15.70;99.90;;;;;;4601400;19;19923;-31
2022/07/18 01:28:07;;;;;;;;;;;15.70;99.90;;;;;;4600515;19;19929;-31
2022/07/18 01:29:38;;;;;;;;;;;15.70;99.90;;;;;;4600882;19;19923;-32
2022/07/18 01:31:09;;;;;;;;;;;15.70;99.90;;;;;;4600748;19;19918;-31
2022/07/18 01:32:41;;;;;;;;;;;15.80;99.90;;;;;;4600580;19;19926;-32
2022/07/18 01:34:11;;;;;;;;;;;15.70;99.90;;;;;;4599245;19;20288;-32
2022/07/18 01:35:42;;;;;;;;;;;15.70;99.90;;;;;;4600347;19;19914;-32
2022/07/18 01:37:15;;;;;;;;;;;15.70;99.90;;;;;;4598601;19;19915;-32
2022/07/18 01:38:46;;;;;;;;;;;15.80;99.90;;;;;;4599743;19;20245;-31
2022/07/18 01:40:17;;;;;;;;;;;15.80;99.90;;;;;;4598999;19;19974;-32
2022/07/18 01:41:54;;;;;;;;;;;15.70;99.90;;;;;;4600274;19;19922;-32
2022/07/18 01:43:25;;;;;;;;;;;15.70;99.90;;;;;;4600615;19;19918;-32
2022/07/18 01:44:56;;;;;;;;;;;15.70;99.90;;;;;;4597068;19;20309;-32
2022/07/18 01:46:27;;;;;;;;;;;15.70;99.90;;;;;;4599161;19;19910;-31
2022/07/18 01:47:58;;;;;;;;;;;15.70;99.90;;;;;;4600360;19;19938;-31
2022/07/18 01:49:32;;;;;;;;;;;15.70;99.90;;;;;;4600850;19;19942;-31
2022/07/18 01:51:04;;;;;;;;;;;15.70;99.90;;;;;;4600057;19;20021;-32
2022/07/18 01:52:35;;;;;;;;;;;15.70;99.90;;;;;;4600319;19;20358;-32
2022/07/18 01:54:06;;;;;;;;;;;15.70;99.90;;;;;;4600735;19;19914;-32
2022/07/18 01:55:36;;;;;;;;;;;15.70;99.90;;;;;;4598732;19;19915;-34
2022/07/18 01:57:08;;;;;;;;;;;15.70;99.90;;;;;;4599362;19;19932;-34
2022/07/18 01:58:39;;;;;;;;;;;15.70;99.90;;;;;;4600393;19;20232;-31
2022/07/18 02:00:10;;;;;;;;;;;15.70;99.90;;;;;;4599097;19;20017;-33
2022/07/18 02:01:41;;;;;;;;;;;15.70;99.90;;;;;;4599600;19;19974;-31
2022/07/18 02:03:12;;;;;;;;;;;15.70;99.90;;;;;;4600307;19;19915;-32
2022/07/18 02:05:02;;;;;;;;;;;15.70;99.90;;;;;;4600107;19;19919;-34
2022/07/18 02:06:33;;;;;;;;;;;15.70;99.90;;;;;;4600705;19;19932;-33
2022/07/18 02:08:04;;;;;;;;;;;15.70;99.90;;;;;;4600109;19;19918;-31
2022/07/18 02:09:35;;;;;;;;;;;15.70;99.90;;;;;;4599779;19;19974;-33
2022/07/18 02:11:06;;;;;;;;;;;15.70;99.90;;;;;;4600485;19;20332;-32
2022/07/18 02:12:37;;;;;;;;;;;15.70;99.90;;;;;;4599214;19;19930;-34
2022/07/18 02:14:08;;;;;;;;;;;15.70;99.90;;;;;;4599228;19;19937;-31
2022/07/18 02:15:39;;;;;;;;;;;15.70;99.90;;;;;;4599907;19;19962;-33
2022/07/18 02:17:10;;;;;;;;;;;15.70;99.90;;;;;;4599491;19;19930;-34
2022/07/18 02:18:41;;;;;;;;;;;15.70;99.90;;;;;;4599942;19;19918;-34
2022/07/18 02:20:12;;;;;;;;;;;15.70;99.90;;;;;;4599570;19;19951;-31
2022/07/18 02:21:44;;;;;;;;;;;15.70;99.90;;;;;;4599994;19;19919;-33
2022/07/18 02:23:15;;;;;;;;;;;15.70;99.90;;;;;;4600236;19;20314;-33
2022/07/18 02:24:46;;;;;;;;;;;15.70;99.90;;;;;;4599829;19;19950;-32
2022/07/18 02:26:17;;;;;;;;;;;15.70;99.90;;;;;;4599414;19;19919;-33
2022/07/18 02:27:48;;;;;;;;;;;15.80;99.90;;;;;;4600064;19;20384;-31
2022/07/18 02:29:19;;;;;;;;;;;15.70;99.90;;;;;;4599789;19;19918;-33
2022/07/18 02:30:50;;;;;;;;;;;15.80;99.90;;;;;;4599420;19;19934;-35
2022/07/18 02:32:23;;;;;;;;;;;15.80;99.90;;;;;;4599748;19;19922;-31
2022/07/18 02:33:54;;;;;;;;;;;15.80;99.90;;;;;;4599908;19;19915;-34
2022/07/18 02:35:25;;;;;;;;;;;15.80;99.90;;;;;;4599840;19;19921;-31
2022/07/18 02:36:56;;;;;;;;;;;15.80;99.90;;;;;;4599049;19;19925;-32
2022/07/18 02:38:27;;;;;;;;;;;15.80;99.90;;;;;;4599648;19;20311;-32
2022/07/18 02:39:58;;;;;;;;;;;15.80;99.90;;;;;;4600215;19;19915;-32
2022/07/18 02:41:29;;;;;;;;;;;15.80;99.90;;;;;;4599947;19;19915;-32
2022/07/18 02:43:00;;;;;;;;;;;15.80;99.90;;;;;;4599410;19;19910;-34
2022/07/18 02:44:31;;;;;;;;;;;15.80;99.90;;;;;;4599604;19;20237;-32
2022/07/18 02:46:02;;;;;;;;;;;15.90;99.90;;;;;;4599893;19;19919;-33
2022/07/18 02:47:33;;;;;;;;;;;15.80;99.90;;;;;;4599201;19;19918;-34
2022/07/18 02:49:04;;;;;;;;;;;15.80;99.90;;;;;;4598195;19;19918;-33
2022/07/18 02:50:35;;;;;;;;;;;15.90;99.90;;;;;;4599053;19;19918;-32
2022/07/18 02:52:07;;;;;;;;;;;15.90;99.90;;;;;;4599689;19;19936;-32
2022/07/18 02:53:38;;;;;;;;;;;15.90;99.90;;;;;;4598038;19;19919;-34
2022/07/18 02:55:09;;;;;;;;;;;15.90;99.90;;;;;;4598603;19;19918;-33
2022/07/18 02:56:40;;;;;;;;;;;15.90;99.90;;;;;;4596975;19;19923;-32
2022/07/18 02:58:11;;;;;;;;;;;15.90;99.90;;;;;;4599262;19;19931;-32
2022/07/18 02:59:42;;;;;;;;;;;15.90;99.90;;;;;;4599172;19;19910;-31
2022/07/18 03:01:13;;;;;;;;;;;15.90;99.90;;;;;;4599028;19;20325;-33
2022/07/18 03:02:44;;;;;;;;;;;15.90;99.90;;;;;;4599254;19;20249;-33
2022/07/18 03:04:16;;;;;;;;;;;15.90;99.90;;;;;;4598714;19;19922;-34
2022/07/18 03:05:47;;;;;;;;;;;15.90;99.90;;;;;;4598780;19;20279;-35
2022/07/18 03:07:18;;;;;;;;;;;15.90;99.90;;;;;;4599396;19;19938;-34
2022/07/18 03:08:49;;;;;;;;;;;15.90;99.90;;;;;;4599048;19;19966;-32
2022/07/18 03:10:20;;;;;;;;;;;15.90;99.90;;;;;;4598914;19;19918;-31
2022/07/18 03:11:51;;;;;;;;;;;15.90;99.90;;;;;;4599112;19;19925;-32
2022/07/18 03:13:22;;;;;;;;;;;15.90;99.90;;;;;;4599077;19;19911;-34
2022/07/18 03:14:53;;;;;;;;;;;15.90;99.90;;;;;;4598803;19;19922;-34
2022/07/18 03:16:24;;;;;;;;;;;15.90;99.90;;;;;;4597597;19;19978;-32
2022/07/18 03:17:55;;;;;;;;;;;15.90;99.90;;;;;;4597408;19;19915;-33
2022/07/18 03:19:26;;;;;;;;;;;15.90;99.90;;;;;;4599003;19;19914;-34
2022/07/18 03:20:57;;;;;;;;;;;15.90;99.90;;;;;;4598361;19;19919;-34
2022/07/18 03:22:28;;;;;;;;;;;15.90;99.90;;;;;;4598481;19;20313;-34
2022/07/18 03:23:59;;;;;;;;;;;15.90;99.90;;;;;;4598833;19;19929;-33
2022/07/18 03:25:30;;;;;;;;;;;15.90;99.90;;;;;;4599375;19;20325;-32
2022/07/18 03:27:01;;;;;;;;;;;15.90;99.90;;;;;;4598472;19;20250;-31
2022/07/18 03:28:32;;;;;;;;;;;15.90;99.90;;;;;;4598634;19;19918;-34
2022/07/18 03:30:03;;;;;;;;;;;15.90;99.90;;;;;;4599128;19;19919;-32
2022/07/18 03:31:34;;;;;;;;;;;15.90;99.90;;;;;;4598838;19;19914;-35
2022/07/18 03:33:05;;;;;;;;;;;15.90;99.90;;;;;;4598378;19;19939;-34
2022/07/18 03:34:36;;;;;;;;;;;15.90;99.90;;;;;;4598601;19;19906;-34
2022/07/18 03:36:07;;;;;;;;;;;15.90;99.90;;;;;;4598637;19;19918;-33
2022/07/18 03:37:38;;;;;;;;;;;15.90;99.90;;;;;;4597042;19;19927;-31
2022/07/18 03:39:09;;;;;;;;;;;15.90;99.90;;;;;;4598530;19;19991;-32
2022/07/18 03:40:41;;;;;;;;;;;15.90;99.90;;;;;;4598839;19;20352;-33
2022/07/18 03:42:11;;;;;;;;;;;15.90;99.90;;;;;;4598937;19;19910;-33
2022/07/18 03:43:42;;;;;;;;;;;15.90;99.90;;;;;;4597836;19;19918;-31
2022/07/18 03:45:13;;;;;;;;;;;15.90;99.90;;;;;;4598475;19;19934;-34
2022/07/18 03:46:44;;;;;;;;;;;15.90;99.90;;;;;;4598760;19;19922;-32
2022/07/18 03:48:15;;;;;;;;;;;16.00;99.90;;;;;;4598211;19;19917;-33
2022/07/18 03:49:46;;;;;;;;;;;15.90;99.90;;;;;;4597618;19;20029;-33
2022/07/18 03:51:17;;;;;;;;;;;15.90;99.90;;;;;;4598306;19;19942;-32
2022/07/18 03:52:48;;;;;;;;;;;16.00;99.90;;;;;;4598349;19;19923;-32
2022/07/18 03:54:19;;;;;;;;;;;16.00;99.90;;;;;;4596756;19;20284;-32
2022/07/18 03:55:50;;;;;;;;;;;16.00;99.90;;;;;;4598576;19;20245;-33
2022/07/18 03:57:21;;;;;;;;;;;16.10;99.90;;;;;;4598566;19;19919;-34
2022/07/18 03:58:52;;;;;;;;;;;16.10;99.90;;;;;;4596775;19;19923;-31
2022/07/18 04:00:23;;;;;;;;;;;16.10;99.90;;;;;;4597317;19;19921;-33
2022/07/18 04:01:54;;;;;;;;;;;16.10;99.90;;;;;;4597711;19;19974;-32
2022/07/18 04:03:25;;;;;;;;;;;16.10;99.90;;;;;;4596859;19;19914;-32
2022/07/18 04:04:56;;;;;;;;;;;16.20;99.90;;;;;;4597349;19;19914;-33
2022/07/18 04:06:27;;;;;;;;;;;16.10;99.90;;;;;;4597633;19;19948;-33
2022/07/18 04:07:58;;;;;;;;;;;16.20;99.90;;;;;;4598665;19;20381;-31
2022/07/18 04:09:29;;;;;;;;;;;16.20;99.90;;;;;;4603714;19;19915;-34
2022/07/18 04:11:00;;;;;;;;;;;16.20;99.90;;;;;;4601800;19;20257;-33
2022/07/18 04:12:32;;;;;;;;;;;16.20;99.90;;;;;;4601538;19;19918;-34
2022/07/18 04:14:03;;;;;;;;;;;16.20;99.90;;;;;;4601835;19;19915;-31
2022/07/18 04:15:34;;;;;;;;;;;16.20;99.90;;;;;;4602588;19;20365;-33
2022/07/18 04:17:05;;;;;;;;;;;16.30;99.90;;;;;;4600001;19;19914;-32
2022/07/18 04:18:36;;;;;;;;;;;16.30;99.90;;;;;;4601472;19;19922;-34
2022/07/18 04:20:07;;;;;;;;;;;16.30;99.90;;;;;;4602144;19;19914;-34
2022/07/18 04:21:38;;;;;;;;;;;16.30;99.90;;;;;;4602019;19;20011;-34
2022/07/18 04:23:09;;;;;;;;;;;16.30;99.90;;;;;;4601988;19;19914;-34
2022/07/18 04:24:40;;;;;;;;;;;16.30;99.90;;;;;;4603274;19;19915;-33
2022/07/18 04:26:11;;;;;;;;;;;16.30;99.90;;;;;;4601749;19;19921;-32
2022/07/18 04:27:42;;;;;;;;;;;16.30;99.90;;;;;;4602008;19;19914;-34
2022/07/18 04:29:13;;;;;;;;;;;16.30;99.90;;;;;;4600186;19;19914;-32
2022/07/18 04:30:44;;;;;;;;;;;16.40;99.90;;;;;;4598027;19;19978;-33
2022/07/18 04:32:15;;;;;;;;;;;16.30;99.90;;;;;;4602071;19;19918;-32
2022/07/18 04:33:46;;;;;;;;;;;16.30;99.90;;;;;;4599908;19;19914;-34
2022/07/18 04:35:18;;;;;;;;;;;16.30;99.90;;;;;;4600863;19;19919;-32
2022/07/18 04:36:49;;;;;;;;;;;16.40;99.90;;;;;;4600452;19;20268;-33
2022/07/18 04:38:19;;;;;;;;;;;16.40;99.90;;;;;;4602431;19;19946;-32
2022/07/18 04:39:50;;;;;;;;;;;16.40;99.90;;;;;;4601647;19;19910;-33
2022/07/18 04:41:24;;;;;;;;;;;16.40;99.90;;;;;;4599920;19;19934;-33
2022/07/18 04:42:55;;;;;;;;;;;16.40;99.90;;;;;;4599927;19;20230;-32
2022/07/18 04:44:26;;;;;;;;;;;16.40;99.90;;;;;;4599498;19;19929;-33
2022/07/18 04:45:57;;;;;;;;;;;16.50;99.90;;;;;;4599432;19;20262;-32
2022/07/18 04:47:28;;;;;;;;;;;16.50;99.90;;;;;;4601659;19;19929;-34
2022/07/18 04:48:59;;;;;;;;;;;16.50;99.90;;;;;;4601450;19;20250;-33
2022/07/18 04:50:31;;;;;;;;;;;16.50;99.90;;;;;;4600875;19;19929;-32
2022/07/18 04:52:02;;;;;;;;;;;16.50;99.90;;;;;;4600820;19;20260;-32
2022/07/18 04:53:33;;;;;;;;;;;16.50;99.90;;;;;;4599938;19;19919;-33
2022/07/18 04:55:05;;;;;;;;;;;16.50;99.90;;;;;;4599537;19;19963;-34
2022/07/18 04:56:36;;;;;;;;;;;16.50;99.90;;;;;;4597440;19;19919;-33
2022/07/18 04:58:07;;;;;;;;;;;16.50;99.90;;;;;;4598049;19;19919;-32
2022/07/18 04:59:39;;;;;;;;;;;16.50;99.90;;;;;;4599198;19;19921;-33
2022/07/18 05:01:10;;;;;;;;;;;16.50;99.90;;;;;;4599331;19;19925;-33
2022/07/18 05:02:41;;;;;;;;;;;16.60;99.90;;;;;;4601677;19;19939;-33
2022/07/18 05:04:12;;;;;;;;;;;16.60;99.90;;;;;;4600996;19;19918;-33
2022/07/18 05:05:44;;;;;;;;;;;16.60;99.90;;;;;;4600984;19;19918;-33
2022/07/18 05:07:14;;;;;;;;;;;16.60;99.90;;;;;;4597810;19;20355;-32
2022/07/18 05:08:45;;;;;;;;;;;16.70;99.90;;;;;;4599631;19;19914;-33
2022/07/18 05:10:17;;;;;;;;;;;16.70;99.90;;;;;;4598369;19;19941;-32
2022/07/18 05:11:48;;;;;;;;;;;16.70;99.90;;;;;;4599307;19;19938;-33
2022/07/18 05:13:19;;;;;;;;;;;16.70;99.90;;;;;;4599686;19;19937;-33
2022/07/18 05:14:50;;;;;;;;;;;16.70;99.90;;;;;;4598958;19;19915;-34
2022/07/18 05:16:21;;;;;;;;;;;16.70;99.90;;;;;;4601616;19;19918;-32
2022/07/18 05:17:53;;;;;;;;;;;16.80;99.90;;;;;;4600378;19;19925;-33
2022/07/18 05:19:24;;;;;;;;;;;16.70;99.90;;;;;;4600288;19;19942;-34
2022/07/18 05:20:55;;;;;;;;;;;16.80;99.90;;;;;;4600217;19;19923;-34
2022/07/18 05:22:25;;;;;;;;;;;16.80;99.90;;;;;;4600104;19;19944;-33
2022/07/18 05:23:57;;;;;;;;;;;16.80;99.90;;;;;;4599309;19;19926;-33
2022/07/18 05:25:28;;;;;;;;;;;16.80;99.90;;;;;;4598741;19;20343;-33
2022/07/18 05:26:59;;;;;;;;;;;16.80;99.90;;;;;;4598637;19;20325;-32
2022/07/18 05:28:30;;;;;;;;;;;16.80;99.90;;;;;;4598909;19;19914;-32
2022/07/18 05:30:02;;;;;;;;;;;16.80;99.90;;;;;;4599810;19;19922;-33
2022/07/18 05:31:33;;;;;;;;;;;16.80;99.90;;;;;;4600418;19;19919;-33
2022/07/18 05:33:04;;;;;;;;;;;16.80;99.90;;;;;;4600268;19;19922;-33
2022/07/18 05:34:35;;;;;;;;;;;16.80;99.90;;;;;;4600335;19;19922;-33
2022/07/18 05:36:06;;;;;;;;;;;16.80;99.90;;;;;;4599374;19;19918;-33
2022/07/18 05:37:37;;;;;;;;;;;16.90;99.90;;;;;;4597087;19;19926;-34
2022/07/18 05:39:09;;;;;;;;;;;16.90;99.90;;;;;;4598949;19;19910;-33
2022/07/18 05:40:40;;;;;;;;;;;16.90;99.90;;;;;;4598367;19;19919;-33
2022/07/18 05:42:11;;;;;;;;;;;16.90;99.90;;;;;;4598452;19;19943;-29
2022/07/18 05:43:42;;;;;;;;;;;16.90;99.90;;;;;;4599774;19;19918;-33
2022/07/18 05:45:13;;;;;;;;;;;17.00;99.90;;;;;;4600817;19;20224;-31
2022/07/18 05:46:44;;;;;;;;;;;17.00;99.90;;;;;;4600008;19;19944;-32
2022/07/18 05:48:15;;;;;;;;;;;17.00;99.90;;;;;;4599721;19;19945;-33
2022/07/18 05:49:46;;;;;;;;;;;17.00;99.90;;;;;;4599438;19;19910;-32
2022/07/18 05:51:18;;;;;;;;;;;17.00;99.90;;;;;;4599731;19;20269;-33
2022/07/18 05:52:49;;;;;;;;;;;17.00;99.90;;;;;;4598736;19;19920;-33
2022/07/18 05:54:20;;;;;;;;;;;17.10;99.90;;;;;;4598250;19;19930;-32
2022/07/18 05:55:51;;;;;;;;;;;17.10;99.90;;;;;;4595074;19;19918;-32
2022/07/18 05:57:22;;;;;;;;;;;17.10;99.90;;;;;;4596988;19;19919;-32
2022/07/18 05:58:53;;;;;;;;;;;17.20;99.90;;;;;;4599383;19;19911;-33
2022/07/18 06:00:25;;;;;;;;;;;17.20;99.90;;;;;;4599955;19;19935;-33
2022/07/18 06:01:55;;;;;;;;;;;17.30;99.90;;;;;;4600153;19;19918;-32
2022/07/18 06:03:26;;;;;;;;;;;17.30;99.90;;;;;;4599346;19;19915;-32
2022/07/18 06:04:58;;;;;;;;;;;17.30;99.90;;;;;;4599112;19;19960;-33
2022/07/18 06:06:30;;;;;;;;;;;17.30;99.90;;;;;;4598810;19;19974;-33
2022/07/18 06:08:01;;;;;;;;;;;17.40;99.90;;;;;;4597638;19;19982;-33
2022/07/18 06:09:31;;;;;;;;;;;17.40;99.90;;;;;;4596536;19;19910;-34
2022/07/18 06:11:03;;;;;;;;;;;17.40;99.90;;;;;;4597596;19;20331;-33
2022/07/18 06:12:35;;;;;;;;;;;17.40;99.90;;;;;;4599876;19;20333;-33
2022/07/18 06:14:05;;;;;;;;;;;17.40;99.90;;;;;;4600024;19;19923;-35
2022/07/18 06:15:36;;;;;;;;;;;17.40;99.90;;;;;;4599577;19;20337;-33
2022/07/18 06:17:10;;;;;;;;;;;17.50;99.90;;;;;;4597323;19;19915;-34
2022/07/18 06:18:42;;;;;;;;;;;17.50;99.90;;;;;;4599190;19;20253;-33
2022/07/18 06:20:13;;;;;;;;;;;17.50;99.90;;;;;;4598613;19;19922;-33
2022/07/18 06:21:44;;;;;;;;;;;17.50;99.90;;;;;;4598185;19;19926;-33
2022/07/18 06:23:15;;;;;;;;;;;17.60;99.90;;;;;;4598760;19;20248;-33
2022/07/18 06:24:46;;;;;;;;;;;17.60;99.90;;;;;;4599731;19;20336;-33
2022/07/18 06:26:17;;;;;;;;;;;17.60;99.90;;;;;;4599571;19;19910;-33
2022/07/18 06:27:48;;;;;;;;;;;17.60;99.90;;;;;;4599065;19;19955;-33
2022/07/18 06:29:19;;;;;;;;;;;17.60;99.90;;;;;;4598572;19;20352;-33
2022/07/18 06:30:50;;;;;;;;;;;17.70;99.90;;;;;;4597750;19;19923;-33
2022/07/18 06:32:21;;;;;;;;;;;17.70;99.90;;;;;;4597088;19;19948;-33
2022/07/18 06:33:52;;;;;;;;;;;17.70;99.90;;;;;;4597511;19;19926;-34
2022/07/18 06:35:23;;;;;;;;;;;17.70;99.90;;;;;;4598010;19;19915;-34
2022/07/18 06:36:54;;;;;;;;;;;17.70;99.90;;;;;;4600106;19;19966;-35
2022/07/18 06:38:25;;;;;;;;;;;17.70;99.90;;;;;;4599782;19;20304;-33
2022/07/18 06:39:56;;;;;;;;;;;17.70;99.90;;;;;;4599359;19;19915;-33
2022/07/18 06:41:27;;;;;;;;;;;17.70;99.90;;;;;;4598938;19;20249;-33
2022/07/18 06:42:58;;;;;;;;;;;17.80;99.90;;;;;;4598600;19;19966;-33
2022/07/18 06:44:29;;;;;;;;;;;17.80;99.90;;;;;;4597040;19;20322;-32
2022/07/18 06:46:00;;;;;;;;;;;17.80;99.90;;;;;;4596532;19;19915;-32
2022/07/18 06:47:31;;;;;;;;;;;17.80;99.90;;;;;;4597354;19;19930;-34
2022/07/18 06:49:02;;;;;;;;;;;17.80;99.90;;;;;;4597332;19;19919;-33
2022/07/18 06:50:33;;;;;;;;;;;17.80;99.90;;;;;;4597441;19;19910;-32
2022/07/18 06:52:04;;;;;;;;;;;17.80;99.90;;;;;;4598981;19;19926;-33
2022/07/18 06:53:35;;;;;;;;;;;17.80;99.90;;;;;;4599625;19;19918;-33
2022/07/18 06:55:07;;;;;;;;;;;17.90;99.90;;;;;;4598807;19;19950;-32
2022/07/18 06:56:38;;;;;;;;;;;17.90;99.90;;;;;;4596293;19;19925;-32
2022/07/18 06:58:09;;;;;;;;;;;17.90;99.90;;;;;;4597207;19;19911;-33
2022/07/18 06:59:40;;;;;;;;;;;17.90;99.90;;;;;;4597551;19;19933;-33
2022/07/18 07:01:11;;;;;;;;;;;17.90;99.90;;;;;;4597145;19;20389;-34
2022/07/18 07:02:46;;;;;;;;;;;17.90;99.90;;;;;;4597040;19;19918;-31
2022/07/18 07:04:17;;;;;;;;;;;17.90;99.90;;;;;;4597446;19;19930;-33
2022/07/18 07:05:48;;;;;;;;;;;17.90;99.90;;;;;;4599471;19;19913;-33
2022/07/18 07:07:19;;;;;;;;;;;17.90;99.90;;;;;;4598224;19;19990;-31
2022/07/18 07:08:50;;;;;;;;;;;17.90;99.90;;;;;;4598495;19;20007;-33
2022/07/18 07:10:21;;;;;;;;;;;18.00;99.90;;;;;;4598912;19;20015;-34
2022/07/18 07:11:52;;;;;;;;;;;18.00;99.90;;;;;;4597850;19;20329;-32
2022/07/18 07:13:23;;;;;;;;;;;18.00;99.90;;;;;;4598564;19;20594;-33
2022/07/18 07:14:54;;;;;;;;;;;18.00;99.90;;;;;;4597830;19;19917;-33
2022/07/18 07:16:25;;;;;;;;;;;18.00;99.90;;;;;;4595617;19;19922;-34
2022/07/18 07:17:56;;;;;;;;;;;18.00;99.90;;;;;;4593576;19;19934;-32
2022/07/18 07:19:28;;;;;;;;;;;18.00;99.90;;;;;;4598496;19;19926;-32
2022/07/18 07:20:59;;;;;;;;;;;18.00;99.90;;;;;;4599162;19;19970;-33
2022/07/18 07:22:30;;;;;;;;;;;18.00;99.90;;;;;;4598460;19;19923;-34
2022/07/18 07:24:01;;;;;;;;;;;18.10;99.90;;;;;;4596123;19;19921;-34
2022/07/18 07:25:32;;;;;;;;;;;18.10;99.90;;;;;;4596445;19;20279;-34
2022/07/18 07:27:03;;;;;;;;;;;18.10;99.90;;;;;;4597050;19;19923;-33
2022/07/18 07:28:34;;;;;;;;;;;18.10;99.90;;;;;;4596336;19;19918;-33
2022/07/18 07:30:05;;;;;;;;;;;18.10;99.90;;;;;;4598060;19;20271;-33
2022/07/18 07:31:37;;;;;;;;;;;18.10;99.90;;;;;;4598712;19;19935;-34
2022/07/18 07:33:08;;;;;;;;;;;18.10;99.90;;;;;;4598302;19;19927;-32
2022/07/18 07:34:39;;;;;;;;;;;18.10;99.90;;;;;;4597885;19;19911;-33
2022/07/18 07:36:11;;;;;;;;;;;18.10;99.90;;;;;;4596259;19;20027;-33
2022/07/18 07:37:43;;;;;;;;;;;18.10;99.90;;;;;;4596531;19;19978;-34
2022/07/18 07:39:14;;;;;;;;;;;18.10;99.90;;;;;;4596960;19;19918;-35
2022/07/18 07:40:46;;;;;;;;;;;18.20;99.90;;;;;;4596651;19;20329;-34
2022/07/18 07:42:17;;;;;;;;;;;18.10;99.90;;;;;;4595889;19;19918;-33
2022/07/18 07:43:48;;;;;;;;;;;18.20;99.90;;;;;;4598706;19;19918;-33
2022/07/18 07:45:19;;;;;;;;;;;18.10;99.90;;;;;;4603120;19;19964;-33
2022/07/18 07:46:51;;;;;;;;;;;18.20;99.90;;;;;;4602302;19;20245;-33
2022/07/18 07:48:22;;;;;;;;;;;18.20;99.90;;;;;;4600820;19;19952;-33
2022/07/18 07:49:54;;;;;;;;;;;18.20;99.90;;;;;;4601742;19;19919;-33
2022/07/18 07:51:27;;;;;;;;;;;18.20;99.90;;;;;;4601259;19;19920;-33
2022/07/18 07:52:58;;;;;;;;;;;18.20;99.90;;;;;;4601206;19;20266;-34
2022/07/18 07:54:28;;;;;;;;;;;18.30;99.90;;;;;;4599601;19;19918;-33
2022/07/18 07:56:00;;;;;;;;;;;18.20;99.90;;;;;;4598111;19;19922;-32
2022/07/18 07:57:31;;;;;;;;;;;18.20;99.90;;;;;;4599064;19;19925;-32
2022/07/18 07:59:03;;;;;;;;;;;18.20;99.90;;;;;;4602544;19;19985;-33
2022/07/18 08:00:34;;;;;;;;;;;18.20;99.90;;;;;;4602751;19;19922;-32
2022/07/18 08:02:05;;;;;;;;;;;18.20;99.90;;;;;;4601908;19;19931;-33
2022/07/18 08:03:36;;;;;;;;;;;18.20;99.90;;;;;;4600816;19;19934;-32
2022/07/18 08:05:07;;;;;;;;;;;18.20;99.90;;;;;;4600799;19;19945;-33
2022/07/18 08:06:38;;;;;;;;;;;18.30;99.90;;;;;;4601130;19;20317;-33
2022/07/18 08:08:09;;;;;;;;;;;18.20;99.90;;;;;;4600353;19;19974;-33
2022/07/18 08:09:40;;;;;;;;;;;18.30;99.90;;;;;;4599897;19;19931;-33
2022/07/18 08:11:11;;;;;;;;;;;18.30;99.90;;;;;;4599624;19;19914;-32
2022/07/18 08:12:42;;;;;;;;;;;18.30;99.90;;;;;;4600279;19;20232;-36
2022/07/18 08:14:13;;;;;;;;;;;18.30;99.90;;;;;;4602126;19;19985;-34
2022/07/18 08:15:44;;;;;;;;;;;18.30;99.90;;;;;;4602015;19;19914;-33
2022/07/18 08:17:15;;;;;;;;;;;18.30;99.90;;;;;;4601385;19;19923;-36
2022/07/18 08:18:46;;;;;;;;;;;18.30;99.90;;;;;;4600859;19;19935;-34
2022/07/18 08:20:17;;;;;;;;;;;18.30;99.90;;;;;;4600426;19;19923;-34
2022/07/18 08:21:48;;;;;;;;;;;18.30;99.90;;;;;;4600622;19;19919;-35
2022/07/18 08:23:19;;;;;;;;;;;18.30;99.90;;;;;;4602802;19;19919;-34
2022/07/18 08:24:50;;;;;;;;;;;18.30;99.90;;;;;;4601785;19;19918;-36
2022/07/18 08:26:21;;;;;;;;;;;18.40;99.90;;;;;;4600623;19;19915;-34
2022/07/18 08:27:52;;;;;;;;;;;18.40;99.90;;;;;;4600947;19;20066;-34
2022/07/18 08:29:23;;;;;;;;;;;18.40;99.90;;;;;;4599564;19;19919;-33
2022/07/18 08:30:54;;;;;;;;;;;18.40;99.90;;;;;;4599395;19;19941;-34
2022/07/18 08:32:26;;;;;;;;;;;18.40;99.90;;;;;;4598445;19;19935;-35
2022/07/18 08:33:57;;;;;;;;;;;18.50;99.90;;;;;;4599109;19;19914;-33
2022/07/18 08:35:28;;;;;;;;;;;18.50;99.90;;;;;;4598674;19;19922;-34
2022/07/18 08:36:59;;;;;;;;;;;18.50;99.90;;;;;;4597954;19;20261;-35
2022/07/18 08:38:30;;;;;;;;;;;18.50;99.90;;;;;;4601201;19;19948;-35
2022/07/18 08:40:02;;;;;;;;;;;18.50;99.90;;;;;;4602129;19;19915;-33
2022/07/18 08:41:33;;;;;;;;;;;18.50;99.90;;;;;;4601009;19;19935;-35
2022/07/18 08:43:04;;;;;;;;;;;18.50;99.90;;;;;;4600715;19;19911;-34
2022/07/18 08:44:36;;;;;;;;;;;18.50;99.90;;;;;;4600470;19;19918;-35
2022/07/18 08:46:07;;;;;;;;;;;18.60;99.90;;;;;;4600019;19;19930;-34
2022/07/18 08:47:37;;;;;;;;;;;18.60;99.90;;;;;;4599293;19;20263;-34
2022/07/18 08:49:09;;;;;;;;;;;18.60;99.90;;;;;;4597862;19;19918;-34
2022/07/18 08:50:44;;;;;;;;;;;18.60;99.90;;;;;;4599136;19;20332;-33
2022/07/18 08:52:15;;;;;;;;;;;18.60;99.90;;;;;;4601637;19;19922;-33